createdAt,value
2018-08-03T13:49:01.245Z,1.30
2018-08-03T13:51:32.295Z,1.35
2018-08-03T13:54:06.897Z,1.30
2018-08-03T13:56:36.511Z,1.37
2018-08-03T13:59:06.346Z,1.52
2018-08-03T14:02:44.995Z,1.32
2018-08-03T14:05:13.852Z,1.30
2018-08-03T14:07:42.931Z,1.22
2018-08-03T14:10:11.991Z,1.45
2018-08-03T14:12:40.654Z,1.60
2018-08-03T14:15:09.244Z,1.00
2018-08-03T14:17:37.830Z,1.50
2018-08-03T14:20:07.353Z,1.42
2018-08-03T14:22:36.026Z,1.22
2018-08-03T14:25:05.305Z,1.40
2018-08-03T14:27:34.714Z,1.22
2018-08-03T14:30:04.055Z,1.17
2018-08-03T14:32:32.628Z,1.32
2018-08-03T14:35:02.010Z,1.52
2018-08-03T14:37:31.810Z,1.20
2018-08-03T14:40:03.306Z,1.30
2018-08-03T14:42:32.289Z,1.15
2018-08-03T14:45:02.459Z,1.20
2018-08-03T14:47:34.480Z,1.20
2018-08-03T14:50:03.354Z,1.07
2018-08-03T14:52:33.011Z,1.07
2018-08-03T14:55:02.571Z,1.20
2018-08-03T14:57:31.324Z,1.00
2018-08-03T14:59:59.906Z,1.35
2018-08-03T15:02:28.543Z,1.07
2018-08-03T15:04:57.077Z,1.10
2018-08-03T15:07:26.403Z,1.12
2018-08-03T15:09:55.155Z,1.20
2018-08-03T15:12:23.823Z,0.93
2018-08-03T15:14:52.141Z,0.90
2018-08-03T15:17:20.783Z,0.98
2018-08-03T15:19:49.608Z,1.10
2018-08-03T15:22:19.369Z,1.00
2018-08-03T15:24:48.782Z,0.95
2018-08-03T15:27:19.793Z,1.05
2018-08-03T15:29:50.059Z,1.25
2018-08-03T15:32:18.620Z,1.10
2018-08-03T15:34:48.177Z,1.07
2018-08-03T15:37:17.548Z,1.10
2018-08-03T15:45:53.907Z,1.00
2018-08-03T15:48:41.031Z,1.22
2018-08-03T15:51:19.552Z,1.00
2018-08-03T15:56:41.435Z,2.52
2018-08-03T15:59:48.865Z,1.30
2018-08-03T16:02:26.753Z,2.08
2018-08-03T16:04:58.093Z,1.30
2018-08-03T16:07:39.351Z,1.20
2018-08-03T16:10:12.364Z,1.30
2018-08-03T16:13:04.340Z,1.57
2018-08-03T16:15:33.340Z,1.32
2018-08-03T16:18:04.408Z,1.00
2018-08-03T16:20:43.223Z,1.47
2018-08-03T16:23:23.329Z,1.22
2018-08-03T16:25:53.243Z,1.47
2018-08-03T16:28:29.784Z,1.50
2018-08-03T16:31:06.539Z,1.42
2018-08-03T16:35:05.870Z,1.05
2018-08-03T16:37:46.642Z,1.20
2018-08-03T16:40:17.579Z,1.05
2018-08-03T16:42:59.415Z,1.70
2018-08-03T16:45:28.487Z,2.80
2018-08-03T16:47:58.645Z,2.75
2018-08-03T16:50:28.758Z,3.45
2018-08-03T16:52:58.369Z,1.72
2018-08-03T16:55:43.048Z,1.60
2018-08-03T17:01:47.298Z,1.35
2018-08-03T17:04:17.044Z,1.30
2018-08-03T17:06:52.291Z,1.55
2018-08-03T17:09:22.415Z,1.70
2018-08-03T17:11:54.129Z,1.22
2018-08-03T17:14:25.363Z,1.57
2018-08-03T17:16:54.196Z,1.22
2018-08-03T17:19:22.723Z,1.70
2018-08-03T17:21:55.209Z,1.27
2018-08-03T17:27:30.546Z,1.40
2018-08-03T17:30:01.231Z,1.37
2018-08-03T17:32:33.499Z,1.25
2018-08-03T17:35:03.885Z,1.80
2018-08-03T17:37:33.175Z,1.02
2018-08-03T17:40:01.684Z,1.50
2018-08-03T17:42:31.267Z,1.50
2018-08-03T17:45:11.064Z,1.40
2018-08-03T17:47:46.055Z,1.27
2018-08-03T17:50:15.450Z,1.10
2018-08-03T17:55:51.268Z,1.42
2018-08-03T17:58:20.138Z,1.30
2018-08-03T18:00:49.849Z,1.15
2018-08-03T18:03:18.458Z,1.30
2018-08-03T18:05:47.665Z,1.50
2018-08-03T18:08:17.301Z,1.20
2018-08-03T18:10:46.591Z,1.22
2018-08-03T18:13:15.223Z,1.00
2018-08-03T18:15:44.435Z,1.30
2018-08-03T18:18:16.067Z,1.22
2018-08-03T18:20:45.561Z,1.30
2018-08-03T18:23:14.096Z,1.62
2018-08-03T18:25:43.334Z,1.12
2018-08-03T18:28:20.890Z,1.35
2018-08-03T18:30:52.449Z,1.40
2018-08-03T18:33:23.435Z,1.90
2018-08-03T18:35:53.562Z,1.35
2018-08-03T18:38:24.603Z,1.35
2018-08-03T18:43:33.078Z,1.35
2018-08-03T18:46:09.196Z,1.10
2018-08-03T18:48:38.403Z,1.50
2018-08-03T18:51:08.065Z,1.47
2018-08-03T18:53:37.717Z,1.40
2018-08-03T18:56:13.899Z,1.40
2018-08-03T18:58:46.038Z,1.20
2018-08-03T19:01:17.317Z,1.45
2018-08-03T19:03:51.419Z,1.27
2018-08-03T19:06:35.355Z,1.90
2018-08-03T19:09:09.597Z,1.67
2018-08-03T19:11:38.933Z,1.87
2018-08-03T19:14:09.666Z,1.30
2018-08-03T19:16:43.833Z,1.30
2018-08-03T19:19:25.210Z,1.30
2018-08-03T19:21:55.468Z,1.27
2018-08-03T19:24:29.606Z,1.55
2018-08-03T19:27:22.612Z,1.47
2018-08-03T19:32:43.655Z,1.10
2018-08-03T19:41:18.359Z,1.00
2018-08-03T19:44:01.436Z,1.55
2018-08-03T19:46:39.358Z,1.65
2018-08-03T19:49:27.163Z,1.85
2018-08-03T19:55:29.545Z,1.45
2018-08-03T19:58:21.982Z,1.30
2018-08-03T20:00:58.493Z,1.70
2018-08-03T20:03:28.768Z,1.60
2018-08-03T20:14:47.710Z,1.40
2018-08-03T20:17:19.678Z,1.30
2018-08-03T20:20:14.930Z,1.33
2018-08-03T20:22:58.078Z,1.20
2018-08-03T20:25:57.719Z,1.70
2018-08-03T20:29:38.779Z,1.90
2018-08-03T20:32:25.411Z,1.55
2018-08-03T20:38:03.517Z,1.80
2018-08-03T20:43:52.809Z,1.87
2018-08-03T20:46:32.094Z,1.60
2018-08-03T20:49:11.202Z,1.87
2018-08-03T20:51:59.617Z,2.30
2018-08-03T20:54:38.267Z,2.30
2018-08-03T20:57:08.989Z,1.80
2018-08-03T20:59:41.167Z,2.00
2018-08-03T21:02:27.227Z,1.93
2018-08-03T21:04:56.315Z,1.80
2018-08-03T21:07:27.848Z,1.97
2018-08-03T21:10:06.847Z,2.00
2018-08-03T21:12:47.677Z,2.05
2018-08-03T21:15:34.103Z,2.37
2018-08-03T21:18:20.007Z,2.40
2018-08-03T21:20:51.208Z,3.33
2018-08-03T21:23:44.047Z,3.62
2018-08-03T21:26:15.821Z,2.90
2018-08-03T21:28:45.199Z,3.20
2018-08-03T21:31:18.256Z,3.40
2018-08-03T21:33:49.096Z,3.30
2018-08-03T21:36:20.593Z,3.90
2018-08-03T21:38:50.027Z,3.90
2018-08-03T21:41:18.564Z,6.55
2018-08-03T21:43:49.837Z,3.50
2018-08-03T21:46:27.725Z,3.22
2018-08-03T21:48:56.800Z,3.90
2018-08-03T21:51:25.992Z,4.17
2018-08-03T21:54:01.541Z,3.90
2018-08-03T21:56:35.697Z,4.43
2018-08-03T21:59:08.230Z,4.30
2018-08-03T22:01:46.603Z,3.83
2018-08-03T22:04:17.231Z,3.63
2018-08-03T22:06:46.661Z,3.90
2018-08-03T22:09:20.963Z,3.60
2018-08-03T22:11:54.090Z,4.50
2018-08-03T22:14:23.301Z,4.10
2018-08-03T22:16:56.255Z,4.23
2018-08-03T22:19:33.423Z,3.87
2018-08-03T22:22:06.912Z,3.63
2018-08-03T22:24:36.374Z,3.60
2018-08-03T22:27:11.247Z,3.72
2018-08-03T22:29:40.701Z,3.67
2018-08-03T22:32:12.463Z,3.10
2018-08-03T22:34:51.351Z,3.87
2018-08-03T22:37:21.917Z,3.60
2018-08-03T22:39:52.529Z,3.43
2018-08-03T22:42:26.739Z,3.35
2018-08-03T22:44:58.088Z,3.60
2018-08-03T22:47:31.338Z,3.13
2018-08-03T22:50:00.800Z,3.07
2018-08-03T22:52:34.116Z,3.10
2018-08-03T22:55:05.677Z,3.20
2018-08-03T22:57:36.902Z,3.40
2018-08-03T23:00:08.475Z,4.13
2018-08-03T23:02:39.565Z,4.53
2018-08-03T23:05:12.328Z,4.30
2018-08-03T23:07:45.366Z,4.43
2018-08-03T23:10:15.566Z,4.75
2018-08-03T23:12:46.022Z,4.07
2018-08-03T23:15:15.150Z,4.33
2018-08-03T23:17:49.436Z,4.30
2018-08-03T23:20:19.703Z,4.47
2018-08-03T23:22:49.362Z,6.13
2018-08-03T23:25:19.262Z,4.93
2018-08-03T23:27:52.092Z,4.70
2018-08-03T23:30:24.380Z,5.93
2018-08-03T23:32:57.925Z,5.73
2018-08-03T23:35:28.852Z,5.80
2018-08-03T23:37:59.609Z,6.47
2018-08-03T23:40:30.908Z,6.40
2018-08-03T23:43:05.158Z,6.90
2018-08-03T23:45:38.029Z,7.20
2018-08-03T23:48:11.361Z,6.43
2018-08-03T23:50:42.490Z,7.17
2018-08-03T23:53:12.499Z,7.27
2018-08-03T23:55:43.760Z,6.80
2018-08-03T23:58:14.291Z,6.97
